Time;durP1;ratioP1;P1;durP2;ratioP2;P2;SDS_P1;SDS_P2;PMS_P1;PMS_P2;Temp;Humidity;BMP_temperature;BMP_pressure;BME280_temperature;BME280_humidity;BME280_pressure;Samples;Min_cycle;Max_cycle;Signal;HPM_P1;HPM_P2
2022/06/19 00:01:36;;;;;;;10.10;4.82;;;28.40;57.40;;;;;;5047412;28;20821;-70
2022/06/19 00:04:04;;;;;;;8.52;4.75;;;28.40;57.20;;;;;;5067178;28;20228;-69
2022/06/19 00:06:30;;;;;;;15.00;5.17;;;28.30;56.90;;;;;;5059496;28;20215;-71
2022/06/19 00:08:56;;;;;;;12.57;4.78;;;28.30;56.70;;;;;;5069300;28;20697;-70
2022/06/19 00:11:23;;;;;;;14.75;5.40;;;28.20;56.90;;;;;;5067658;28;20971;-71
2022/06/19 00:13:49;;;;;;;9.05;4.70;;;28.20;57.00;;;;;;5062662;28;20262;-71
2022/06/19 00:16:15;;;;;;;10.25;4.90;;;28.20;56.90;;;;;;5081828;28;20247;-70
2022/06/19 00:18:41;;;;;;;14.43;4.55;;;28.20;57.00;;;;;;5064550;28;20281;-71
2022/06/19 00:21:08;;;;;;;13.80;4.90;;;28.20;57.00;;;;;;5081030;28;20639;-70
2022/06/19 00:23:35;;;;;;;9.77;4.90;;;28.20;57.10;;;;;;5083293;28;20262;-69
2022/06/19 00:26:02;;;;;;;10.02;4.63;;;28.20;57.20;;;;;;5072003;28;20226;-71
2022/06/19 00:28:28;;;;;;;6.90;4.60;;;28.20;57.30;;;;;;5057721;28;20750;-71
2022/06/19 00:30:54;;;;;;;14.85;5.05;;;28.20;57.30;;;;;;5054937;28;20227;-70
2022/06/19 00:33:20;;;;;;;13.02;4.47;;;28.10;57.30;;;;;;5072070;28;20253;-71
2022/06/19 00:35:47;;;;;;;12.05;5.28;;;28.10;57.20;;;;;;5054157;28;20227;-71
2022/06/19 00:38:13;;;;;;;10.07;5.00;;;28.10;57.30;;;;;;5048057;28;20217;-70
2022/06/19 00:40:39;;;;;;;9.73;5.10;;;28.10;57.10;;;;;;5080080;28;20587;-70
2022/06/19 00:43:05;;;;;;;8.32;4.13;;;28.00;57.30;;;;;;5071989;28;20226;-69
2022/06/19 00:45:50;;;;;;;10.87;4.50;;;28.00;57.40;;;;;;5054328;28;20590;-71
2022/06/19 00:48:30;;;;;;;6.47;4.82;;;28.00;57.60;;;;;;5053139;28;20235;-70
2022/06/19 00:51:00;;;;;;;14.05;4.40;;;27.90;57.40;;;;;;5051941;28;20223;-70
2022/06/19 00:53:35;;;;;;;11.77;4.90;;;27.80;57.60;;;;;;5080043;28;20249;-70
2022/06/19 00:56:01;;;;;;;7.90;4.85;;;27.70;57.80;;;;;;5082044;28;20504;-70
2022/06/19 00:58:34;;;;;;;8.17;4.87;;;27.70;57.90;;;;;;5071115;28;20227;-69
2022/06/19 01:01:04;;;;;;;11.63;5.30;;;27.70;58.10;;;;;;5071305;28;20260;-70
2022/06/19 01:03:39;;;;;;;8.48;5.32;;;27.60;58.00;;;;;;5083544;28;20218;-70
2022/06/19 01:06:06;;;;;;;10.15;5.95;;;27.60;58.10;;;;;;5069051;28;20228;-70
2022/06/19 01:08:32;;;;;;;12.03;4.30;;;27.60;58.20;;;;;;5072055;28;20223;-71
2022/06/19 01:10:58;;;;;;;13.30;4.33;;;27.50;58.30;;;;;;5078104;28;20452;-70
2022/06/19 01:13:29;;;;;;;9.35;6.65;;;27.40;58.60;;;;;;5088576;28;20276;-70
2022/06/19 01:15:55;;;;;;;8.60;4.30;;;27.40;58.50;;;;;;5056683;28;20298;-70
2022/06/19 01:18:21;;;;;;;8.10;4.87;;;27.30;58.60;;;;;;5053931;28;20466;-70
2022/06/19 01:20:52;;;;;;;6.20;3.83;;;27.40;58.70;;;;;;5074198;28;20266;-69
2022/06/19 01:23:23;;;;;;;12.40;4.80;;;27.40;58.50;;;;;;5068219;28;20301;-70
2022/06/19 01:25:51;;;;;;;6.43;4.90;;;27.30;58.40;;;;;;5068984;28;20215;-70
2022/06/19 01:28:45;;;;;;;14.70;5.53;;;27.20;58.40;;;;;;5053734;28;20479;-70
2022/06/19 01:31:18;;;;;;;12.37;4.90;;;27.20;58.50;;;;;;5069638;28;20482;-72
2022/06/19 01:33:49;;;;;;;11.20;4.23;;;27.30;58.40;;;;;;5070357;28;20504;-69
2022/06/19 01:36:20;;;;;;;10.23;5.03;;;27.20;58.00;;;;;;5072959;28;20485;-71
2022/06/19 01:38:49;;;;;;;11.80;4.67;;;27.20;58.50;;;;;;5078836;28;20483;-69
2022/06/19 01:41:21;;;;;;;14.33;5.50;;;27.20;58.00;;;;;;5058377;28;20467;-70
2022/06/19 01:43:47;;;;;;;9.30;4.60;;;27.20;58.10;;;;;;5052633;28;20218;-70
2022/06/19 01:46:17;;;;;;;8.90;4.50;;;27.20;58.20;;;;;;5070621;28;20514;-70
2022/06/19 01:48:43;;;;;;;9.20;4.10;;;27.20;58.10;;;;;;5068948;28;21028;-70
2022/06/19 01:51:09;;;;;;;11.37;4.90;;;27.20;58.10;;;;;;5070357;28;20222;-70
2022/06/19 01:53:35;;;;;;;9.23;4.50;;;27.20;58.10;;;;;;5066927;28;20264;-69
2022/06/19 01:56:04;;;;;;;10.70;5.30;;;27.10;58.10;;;;;;5066158;28;20297;-70
2022/06/19 01:58:32;;;;;;;17.13;7.17;;;27.10;58.10;;;;;;5083583;28;20457;-70
2022/06/19 02:00:58;;;;;;;8.93;5.07;;;27.10;58.20;;;;;;5080418;28;20493;-71
2022/06/19 02:03:46;;;;;;;10.37;4.43;;;27.10;58.30;;;;;;5083887;28;20453;-70
2022/06/19 02:06:15;;;;;;;10.83;4.70;;;27.00;58.30;;;;;;5066117;28;20504;-70
2022/06/19 02:08:42;;;;;;;19.93;6.33;;;26.90;58.30;;;;;;5069426;28;20453;-69
2022/06/19 02:11:11;;;;;;;14.10;5.83;;;26.90;58.30;;;;;;5077717;28;20536;-69
2022/06/19 02:13:38;;;;;;;9.40;4.53;;;26.90;58.40;;;;;;5075671;28;20460;-71
2022/06/19 02:16:08;;;;;;;6.90;4.70;;;26.90;58.50;;;;;;5062157;28;20463;-69
2022/06/19 02:18:37;;;;;;;7.40;5.30;;;26.80;58.50;;;;;;5059579;28;20234;-70
2022/06/19 02:21:06;;;;;;;11.60;5.03;;;26.80;58.40;;;;;;5081995;28;20491;-70
2022/06/19 02:23:36;;;;;;;7.83;5.50;;;26.80;58.60;;;;;;5055266;28;20457;-70
2022/06/19 02:26:05;;;;;;;13.57;5.63;;;26.80;58.60;;;;;;5075706;28;20524;-70
2022/06/19 02:28:36;;;;;;;10.40;5.30;;;26.80;58.70;;;;;;5069045;28;20535;-70
2022/06/19 02:31:03;;;;;;;9.03;5.30;;;26.80;58.70;;;;;;5075133;28;20463;-70
2022/06/19 02:33:33;;;;;;;12.93;4.50;;;26.80;58.70;;;;;;5062081;28;20972;-70
2022/06/19 02:35:58;;;;;;;14.30;4.57;;;26.70;58.80;;;;;;5069693;28;20535;-70
2022/06/19 02:38:24;;;;;;;17.93;5.33;;;26.70;58.80;;;;;;5063329;28;20491;-70
2022/06/19 02:41:17;;;;;;;8.10;4.77;;;26.70;58.90;;;;;;5048838;28;20242;-70
2022/06/19 02:43:43;;;;;;;9.07;5.53;;;26.70;59.00;;;;;;5048839;28;20250;-69
2022/06/19 02:46:08;;;;;;;9.97;4.67;;;26.70;59.00;;;;;;5061858;28;20559;-70
2022/06/19 02:48:34;;;;;;;8.50;4.23;;;26.60;59.10;;;;;;5034028;28;20208;-70
2022/06/19 02:51:05;;;;;;;9.93;4.73;;;26.60;59.10;;;;;;5070414;28;20231;-70
2022/06/19 02:53:31;;;;;;;10.67;6.43;;;26.60;59.30;;;;;;5067664;28;20214;-68
2022/06/19 02:55:58;;;;;;;8.03;4.87;;;26.60;59.40;;;;;;5064409;28;20449;-69
2022/06/19 02:58:24;;;;;;;8.23;5.20;;;26.50;59.50;;;;;;5069690;28;20226;-70
2022/06/19 03:00:51;;;;;;;14.80;5.50;;;26.40;59.60;;;;;;5069836;28;20473;-70
2022/06/19 03:03:28;;;;;;;10.13;5.43;;;26.40;59.80;;;;;;5061310;28;20518;-70
2022/06/19 03:05:54;;;;;;;11.93;5.50;;;26.40;59.90;;;;;;5065916;28;20468;-71
2022/06/19 03:08:20;;;;;;;14.30;5.13;;;26.40;59.90;;;;;;5060012;28;20453;-70
2022/06/19 03:10:46;;;;;;;10.03;5.17;;;26.30;60.50;;;;;;5068503;28;20264;-69
2022/06/19 03:13:12;;;;;;;5.83;4.67;;;26.20;60.70;;;;;;5068822;28;20228;-69
2022/06/19 03:15:37;;;;;;;11.70;5.47;;;26.20;61.00;;;;;;5065848;28;20589;-70
2022/06/19 03:18:04;;;;;;;8.73;4.80;;;26.20;60.90;;;;;;5048958;28;20250;-70
2022/06/19 03:20:30;;;;;;;9.33;4.90;;;26.20;60.90;;;;;;5049573;28;20234;-69
2022/06/19 03:22:55;;;;;;;13.50;4.67;;;26.20;61.20;;;;;;5051578;28;20872;-70
2022/06/19 03:25:22;;;;;;;14.90;5.50;;;26.10;61.10;;;;;;5067803;28;20304;-70
2022/06/19 03:27:48;;;;;;;12.63;5.50;;;26.10;61.30;;;;;;5062158;28;20214;-68
2022/06/19 03:30:16;;;;;;;9.47;5.50;;;26.10;61.40;;;;;;5067977;28;20468;-70
2022/06/19 03:32:43;;;;;;;8.90;4.30;;;26.10;61.50;;;;;;5068614;28;20225;-70
2022/06/19 03:35:09;;;;;;;9.40;4.30;;;26.00;61.60;;;;;;5068443;28;20514;-70
2022/06/19 03:37:36;;;;;;;16.40;5.33;;;25.90;61.90;;;;;;5060470;28;21080;-70
2022/06/19 03:40:02;;;;;;;11.30;6.70;;;25.90;62.10;;;;;;5057630;28;20502;-71
2022/06/19 03:42:28;;;;;;;9.83;4.87;;;25.90;62.00;;;;;;5057589;28;20456;-71
2022/06/19 03:44:53;;;;;;;8.20;4.50;;;25.80;62.10;;;;;;5063628;28;20468;-70
2022/06/19 03:47:23;;;;;;;10.27;5.17;;;25.80;62.30;;;;;;5065675;28;20230;-70
2022/06/19 03:49:49;;;;;;;7.60;5.37;;;25.80;62.30;;;;;;5064853;28;20228;-69
2022/06/19 03:52:15;;;;;;;11.20;5.07;;;25.80;62.60;;;;;;5065427;28;20968;-70
2022/06/19 03:54:41;;;;;;;11.23;4.97;;;25.80;63.10;;;;;;5061625;28;20444;-69
2022/06/19 03:57:07;;;;;;;12.03;4.97;;;25.70;62.80;;;;;;5065287;28;20637;-70
2022/06/19 03:59:33;;;;;;;13.33;5.47;;;25.60;63.10;;;;;;5067248;28;20223;-69
2022/06/19 04:01:58;;;;;;;8.23;5.30;;;25.60;63.50;;;;;;5068371;28;20469;-70
2022/06/19 04:04:24;;;;;;;9.40;5.77;;;25.50;63.90;;;;;;5065599;28;20460;-70
2022/06/19 04:06:50;;;;;;;8.40;5.00;;;25.50;63.60;;;;;;5053685;28;20288;-69
2022/06/19 04:09:17;;;;;;;6.60;4.57;;;25.50;63.50;;;;;;5067939;28;20571;-70
2022/06/19 04:11:43;;;;;;;10.67;5.40;;;25.60;64.20;;;;;;5068768;28;20222;-69
2022/06/19 04:14:10;;;;;;;9.73;5.00;;;25.60;63.80;;;;;;5060671;28;20462;-70
2022/06/19 04:16:37;;;;;;;7.63;4.60;;;25.60;63.70;;;;;;5049955;28;20472;-70
2022/06/19 04:19:05;;;;;;;9.03;5.00;;;25.60;64.20;;;;;;5057964;28;20465;-69
2022/06/19 04:21:35;;;;;;;8.13;5.00;;;25.50;64.30;;;;;;5069464;28;20476;-70
2022/06/19 04:24:04;;;;;;;10.53;4.83;;;25.40;65.00;;;;;;5062705;28;20469;-70
2022/06/19 04:26:33;;;;;;;5.17;4.27;;;25.50;64.50;;;;;;5070402;28;20467;-70
2022/06/19 04:28:59;;;;;;;9.73;5.60;;;25.50;64.30;;;;;;5051527;28;20462;-70
2022/06/19 04:31:25;;;;;;;8.20;4.70;;;25.50;64.40;;;;;;5070714;28;20449;-71
2022/06/19 04:33:51;;;;;;;7.97;5.40;;;25.50;64.30;;;;;;5068483;28;20515;-69
2022/06/19 04:36:19;;;;;;;9.77;4.53;;;25.60;64.00;;;;;;5065841;28;20762;-69
2022/06/19 04:38:47;;;;;;;6.80;5.27;;;25.60;64.20;;;;;;5070770;28;20483;-70
2022/06/19 04:41:14;;;;;;;6.10;4.57;;;25.60;64.30;;;;;;5049858;28;20493;-68
2022/06/19 04:43:41;;;;;;;7.87;4.37;;;25.60;64.30;;;;;;5052883;28;20494;-69
2022/06/19 04:46:06;;;;;;;6.30;4.53;;;25.60;64.50;;;;;;5070953;28;20457;-70
2022/06/19 04:48:33;;;;;;;7.10;4.83;;;25.60;65.20;;;;;;5060893;28;20457;-69
2022/06/19 04:50:58;;;;;;;8.13;5.57;;;25.60;64.40;;;;;;5069136;28;20257;-70
2022/06/19 04:53:24;;;;;;;11.30;5.33;;;25.60;64.50;;;;;;5063227;28;20501;-71
2022/06/19 04:55:50;;;;;;;7.57;4.90;;;25.60;64.50;;;;;;5064034;28;20227;-69
2022/06/19 04:58:16;;;;;;;13.13;4.97;;;25.60;64.70;;;;;;5070777;28;20864;-70
2022/06/19 05:00:42;;;;;;;7.13;4.50;;;25.60;64.60;;;;;;5069219;28;20492;-70
2022/06/19 05:03:08;;;;;;;7.60;4.90;;;25.60;65.80;;;;;;5070908;28;20698;-70
2022/06/19 05:05:33;;;;;;;8.47;5.57;;;25.60;65.50;;;;;;5069135;28;20284;-70
2022/06/19 05:07:59;;;;;;;8.10;4.90;;;25.60;65.10;;;;;;5068375;28;20237;-70
2022/06/19 05:10:25;;;;;;;7.40;4.93;;;25.60;65.00;;;;;;5068681;28;20226;-70
2022/06/19 05:12:55;;;;;;;14.23;5.83;;;25.70;65.20;;;;;;5051885;28;20219;-70
2022/06/19 05:15:21;;;;;;;8.07;4.80;;;25.70;65.10;;;;;;5067037;28;20222;-70
2022/06/19 05:17:47;;;;;;;11.13;4.73;;;25.70;65.10;;;;;;5070182;28;20452;-69
2022/06/19 05:20:13;;;;;;;4.97;4.30;;;25.70;65.90;;;;;;5059712;28;20690;-70
2022/06/19 05:22:39;;;;;;;12.37;5.27;;;25.70;65.50;;;;;;5067238;28;20225;-69
2022/06/19 05:25:08;;;;;;;6.63;4.80;;;25.70;65.10;;;;;;5068190;28;20210;-70
2022/06/19 05:27:40;;;;;;;8.57;5.60;;;25.80;66.00;;;;;;5086637;28;20774;-70
2022/06/19 05:30:10;;;;;;;11.90;4.40;;;25.80;65.50;;;;;;5068399;28;20461;-70
2022/06/19 05:32:35;;;;;;;5.90;4.33;;;25.80;65.70;;;;;;5040251;28;20460;-70
2022/06/19 05:35:01;;;;;;;14.87;5.60;;;25.90;66.10;;;;;;5048627;28;20894;-69
2022/06/19 05:37:27;;;;;;;13.97;5.57;;;25.90;66.10;;;;;;5064826;28;20215;-70
2022/06/19 05:39:52;;;;;;;7.40;5.20;;;25.90;65.60;;;;;;5067883;28;20227;-70
2022/06/19 05:42:18;;;;;;;8.90;4.77;;;26.00;65.80;;;;;;5067683;28;20321;-70
2022/06/19 05:44:44;;;;;;;13.40;4.77;;;26.00;66.00;;;;;;5063353;28;20302;-70
2022/06/19 05:47:10;;;;;;;11.20;7.00;;;26.00;66.20;;;;;;5064386;28;20223;-69
2022/06/19 05:49:36;;;;;;;11.03;5.17;;;26.10;66.00;;;;;;5066165;28;20218;-70
2022/06/19 05:52:12;;;;;;;9.03;5.30;;;26.10;66.20;;;;;;5068090;28;20453;-70
2022/06/19 05:54:37;;;;;;;11.10;5.60;;;26.10;66.00;;;;;;5048269;28;21514;-69
2022/06/19 05:57:03;;;;;;;17.60;6.17;;;26.20;66.20;;;;;;5068474;28;20464;-69
2022/06/19 05:59:29;;;;;;;12.60;5.33;;;26.20;66.20;;;;;;5066821;28;20702;-70
2022/06/19 06:01:55;;;;;;;11.83;5.00;;;26.20;66.20;;;;;;5064844;28;20227;-70
2022/06/19 06:04:22;;;;;;;12.70;5.17;;;26.30;66.80;;;;;;5065981;28;20222;-70
2022/06/19 06:06:48;;;;;;;9.13;4.80;;;26.30;66.90;;;;;;5049286;28;20483;-68
2022/06/19 06:09:14;;;;;;;6.90;4.43;;;26.40;66.80;;;;;;5068142;28;20484;-70
2022/06/19 06:11:40;;;;;;;9.67;4.87;;;26.40;67.30;;;;;;5064656;28;20229;-70
2022/06/19 06:14:05;;;;;;;10.63;6.37;;;26.60;67.90;;;;;;5063170;28;20222;-70
2022/06/19 06:16:31;;;;;;;9.97;6.37;;;26.60;68.40;;;;;;5043602;28;20222;-69
2022/06/19 06:18:57;;;;;;;13.20;5.80;;;26.70;70.30;;;;;;5066401;28;20297;-70
2022/06/19 06:21:24;;;;;;;12.03;5.63;;;26.70;69.50;;;;;;5050277;28;20618;-71
2022/06/19 06:23:51;;;;;;;11.33;6.20;;;26.70;68.70;;;;;;5047760;28;20226;-70
2022/06/19 06:26:20;;;;;;;15.87;5.53;;;26.70;69.50;;;;;;5060346;28;20509;-68
2022/06/19 06:28:48;;;;;;;9.20;5.77;;;26.80;69.60;;;;;;5064583;28;20438;-70
2022/06/19 06:31:15;;;;;;;12.87;7.10;;;26.90;69.70;;;;;;5043724;28;20525;-70
2022/06/19 06:33:41;;;;;;;7.13;5.30;;;26.90;69.50;;;;;;5037824;28;20480;-69
2022/06/19 06:36:07;;;;;;;14.57;6.80;;;27.00;70.10;;;;;;5055888;28;20465;-69
2022/06/19 06:38:33;;;;;;;10.03;6.10;;;27.10;70.60;;;;;;5055948;28;21009;-70
2022/06/19 06:40:59;;;;;;;8.77;5.80;;;27.20;71.30;;;;;;5060436;28;20566;-70
2022/06/19 06:43:25;;;;;;;8.10;7.30;;;27.30;71.30;;;;;;5057556;28;20302;-70
2022/06/19 06:45:50;;;;;;;8.53;7.67;;;27.40;71.70;;;;;;5068428;28;20621;-70
2022/06/19 06:48:17;;;;;;;9.70;8.30;;;27.50;72.00;;;;;;5055949;28;20851;-70
2022/06/19 06:50:44;;;;;;;12.23;9.00;;;27.50;71.70;;;;;;5064046;28;20241;-70
2022/06/19 06:53:10;;;;;;;9.40;8.50;;;27.50;71.90;;;;;;5066714;28;20348;-69
2022/06/19 06:55:45;;;;;;;9.93;8.97;;;27.60;72.20;;;;;;5063100;28;20215;-68
2022/06/19 06:58:11;;;;;;;11.00;9.50;;;27.60;73.00;;;;;;5066700;28;20468;-69
2022/06/19 07:00:37;;;;;;;18.13;10.80;;;27.70;73.50;;;;;;5067219;28;20279;-70
2022/06/19 07:03:04;;;;;;;11.53;9.80;;;27.70;72.90;;;;;;5066665;28;20220;-70
2022/06/19 07:05:30;;;;;;;13.80;9.70;;;27.80;73.20;;;;;;5048846;28;20219;-69
2022/06/19 07:07:56;;;;;;;13.40;9.53;;;27.80;73.60;;;;;;5065769;28;20805;-71
2022/06/19 07:10:22;;;;;;;10.45;9.48;;;28.00;73.20;;;;;;5049453;28;20225;-71
2022/06/19 07:12:48;;;;;;;10.65;9.75;;;28.00;73.10;;;;;;5065834;28;20233;-70
2022/06/19 07:15:15;;;;;;;11.38;9.85;;;28.10;72.70;;;;;;5064901;28;20225;-70
2022/06/19 07:17:40;;;;;;;9.85;9.05;;;28.20;72.40;;;;;;5065550;28;20285;-70
2022/06/19 07:20:06;;;;;;;11.63;10.45;;;28.30;71.90;;;;;;5056583;28;21030;-71
2022/06/19 07:22:32;;;;;;;12.40;10.57;;;28.30;71.20;;;;;;5064828;28;20211;-69
2022/06/19 07:24:58;;;;;;;18.45;9.23;;;28.40;71.20;;;;;;5060797;28;20213;-70
2022/06/19 07:27:24;;;;;;;11.85;9.52;;;28.50;71.20;;;;;;5063740;28;21027;-71
2022/06/19 07:29:50;;;;;;;11.18;10.05;;;28.60;71.20;;;;;;5048430;28;20224;-68
2022/06/19 07:32:16;;;;;;;11.75;10.63;;;28.60;70.70;;;;;;5063282;28;20215;-70
2022/06/19 07:34:42;;;;;;;13.77;10.48;;;28.70;70.80;;;;;;5066818;28;20217;-70
2022/06/19 07:37:11;;;;;;;10.57;9.57;;;28.80;70.60;;;;;;5065595;28;20732;-69
2022/06/19 07:39:37;;;;;;;10.52;9.43;;;28.90;70.20;;;;;;5066434;28;20859;-70
2022/06/19 07:42:05;;;;;;;11.18;10.10;;;29.00;69.70;;;;;;5065789;28;20345;-69
2022/06/19 07:44:30;;;;;;;10.38;9.38;;;29.00;69.60;;;;;;5066814;28;20225;-70
2022/06/19 07:52:25;;;;;;;10.35;9.27;;;29.30;69.30;;;;;;5065335;28;20230;-69
2022/06/19 07:54:50;;;;;;;10.23;9.27;;;29.40;69.70;;;;;;5064111;28;20230;-69
2022/06/19 07:57:16;;;;;;;11.25;10.15;;;29.40;69.90;;;;;;5066869;28;20234;-71
2022/06/19 07:59:41;;;;;;;11.50;10.25;;;29.50;69.50;;;;;;5065582;28;20221;-69
2022/06/19 08:02:07;;;;;;;11.23;10.13;;;29.60;69.20;;;;;;5061989;28;20223;-71
2022/06/19 08:04:33;;;;;;;16.38;9.85;;;29.70;69.10;;;;;;5060189;28;20220;-69
2022/06/19 08:06:58;;;;;;;11.00;9.85;;;29.70;68.90;;;;;;5066789;28;20227;-70
2022/06/19 08:09:24;;;;;;;11.68;10.68;;;29.80;68.80;;;;;;5063416;28;20241;-70
2022/06/19 08:11:50;;;;;;;10.60;9.60;;;29.90;68.90;;;;;;5064976;28;20314;-69
2022/06/19 08:14:16;;;;;;;11.05;9.85;;;30.00;68.00;;;;;;5062369;28;20318;-70
2022/06/19 08:16:41;;;;;;;10.38;9.48;;;30.10;67.70;;;;;;5028217;28;20218;-70
2022/06/19 08:19:07;;;;;;;10.93;9.20;;;30.10;67.80;;;;;;5045593;28;20672;-71
2022/06/19 08:21:33;;;;;;;10.15;9.25;;;30.20;68.10;;;;;;5057681;28;20316;-70
2022/06/19 08:23:58;;;;;;;11.35;9.63;;;30.30;67.80;;;;;;5064582;28;20325;-71
2022/06/19 08:26:24;;;;;;;10.57;9.48;;;30.40;67.60;;;;;;5064567;28;20278;-71
2022/06/19 08:31:21;;;;;;;13.68;9.27;;;30.60;67.20;;;;;;5062641;28;20231;-71
2022/06/19 08:33:47;;;;;;;10.77;9.35;;;30.70;67.20;;;;;;5062372;28;20232;-71
2022/06/19 08:36:12;;;;;;;10.25;9.30;;;30.80;67.00;;;;;;5063349;28;20233;-71
2022/06/19 08:38:44;;;;;;;11.73;9.63;;;30.90;66.90;;;;;;5060804;28;20256;-70
2022/06/19 08:41:13;;;;;;;10.35;9.35;;;31.00;65.60;;;;;;5059054;28;20299;-69
2022/06/19 08:43:44;;;;;;;9.15;8.35;;;31.10;64.20;;;;;;5042909;28;20226;-71
2022/06/19 08:46:51;;;;;;;9.15;8.15;;;31.10;63.50;;;;;;5055731;28;20251;-70
2022/06/19 08:49:41;;;;;;;9.40;8.50;;;31.20;63.10;;;;;;5024176;28;20227;-70
2022/06/19 08:52:13;;;;;;;9.13;8.23;;;31.40;62.10;;;;;;5058412;28;20735;-70
2022/06/19 08:54:51;;;;;;;10.98;9.15;;;31.50;62.00;;;;;;5060449;28;20318;-71
2022/06/19 08:57:38;;;;;;;13.30;10.73;;;31.60;61.80;;;;;;5061484;28;20765;-71
2022/06/19 09:00:16;;;;;;;12.18;8.82;;;31.70;61.90;;;;;;5063705;28;20236;-70
2022/06/19 09:06:45;;;;;;;10.05;8.98;;;31.90;61.30;;;;;;5024647;28;20223;-71
2022/06/19 09:09:22;;;;;;;12.80;9.15;;;32.00;61.20;;;;;;5024283;28;20234;-70
2022/06/19 09:11:57;;;;;;;10.27;9.38;;;32.10;60.80;;;;;;5071600;28;20622;-69
2022/06/19 09:14:35;;;;;;;16.83;9.30;;;32.20;61.50;;;;;;5056283;28;20307;-71
2022/06/19 09:17:11;;;;;;;11.77;10.20;;;32.40;61.10;;;;;;5057919;28;20255;-71
2022/06/19 09:19:48;;;;;;;9.48;8.65;;;32.50;60.70;;;;;;5040016;28;20228;-70
2022/06/19 09:22:29;;;;;;;10.35;9.45;;;32.50;60.60;;;;;;5063036;28;20260;-70
2022/06/19 09:25:16;;;;;;;13.23;9.05;;;32.60;60.90;;;;;;5061098;28;20297;-70
2022/06/19 09:27:49;;;;;;;9.95;9.15;;;32.60;60.90;;;;;;5055810;28;20228;-70
2022/06/19 09:30:32;;;;;;;11.38;9.30;;;32.70;61.30;;;;;;5053061;28;20306;-71
2022/06/19 09:33:09;;;;;;;10.85;9.85;;;32.80;61.10;;;;;;5052438;28;20217;-70
2022/06/19 09:35:42;;;;;;;9.98;9.00;;;32.90;61.10;;;;;;5058898;28;20234;-70
2022/06/19 09:38:15;;;;;;;11.05;9.90;;;33.00;61.20;;;;;;5055726;28;20717;-70
2022/06/19 09:40:46;;;;;;;11.48;9.52;;;33.00;60.60;;;;;;5068003;28;20238;-69
2022/06/19 09:43:31;;;;;;;10.77;9.73;;;33.10;60.00;;;;;;5060970;28;20303;-71
2022/06/19 09:46:06;;;;;;;10.05;9.05;;;33.30;60.00;;;;;;5046581;28;20227;-70
2022/06/19 09:48:46;;;;;;;9.88;9.05;;;33.30;59.80;;;;;;5074371;28;20268;-68
2022/06/19 09:51:21;;;;;;;10.27;9.32;;;33.40;59.90;;;;;;5041295;28;20215;-69
2022/06/19 09:54:14;;;;;;;11.00;8.88;;;33.50;59.90;;;;;;5064478;28;20214;-72
2022/06/19 09:56:43;;;;;;;13.27;10.25;;;33.60;60.00;;;;;;5063999;28;20227;-71
2022/06/19 09:59:14;;;;;;;11.23;9.05;;;33.70;59.90;;;;;;5058712;28;20214;-71
2022/06/19 10:01:42;;;;;;;10.98;9.93;;;33.80;59.80;;;;;;5063263;28;20250;-71
2022/06/19 10:04:21;;;;;;;14.48;10.00;;;33.80;60.40;;;;;;5050814;28;20319;-69
2022/06/19 10:07:00;;;;;;;16.73;9.63;;;34.00;59.50;;;;;;5057420;28;20228;-70
2022/06/19 10:09:48;;;;;;;10.05;9.13;;;34.10;59.60;;;;;;5058281;28;20282;-71
2022/06/19 10:12:25;;;;;;;10.48;9.38;;;34.20;59.20;;;;;;5059207;28;20203;-69
2022/06/19 10:14:53;;;;;;;11.13;9.75;;;34.20;59.00;;;;;;5058430;28;20302;-69
2022/06/19 10:17:29;;;;;;;10.95;9.38;;;34.20;58.90;;;;;;5067777;28;20222;-69
2022/06/19 10:19:58;;;;;;;11.55;10.57;;;34.30;58.90;;;;;;5071717;28;20226;-68
2022/06/19 10:22:25;;;;;;;10.40;9.57;;;34.40;58.60;;;;;;5069348;28;20279;-71
2022/06/19 10:25:12;;;;;;;11.38;9.77;;;34.50;58.80;;;;;;5062317;28;20237;-69
2022/06/19 10:27:52;;;;;;;11.18;9.02;;;34.50;58.60;;;;;;5068169;28;20314;-70
2022/06/19 10:30:37;;;;;;;9.98;9.10;;;34.60;59.00;;;;;;5070427;28;20709;-70
2022/06/19 10:33:14;;;;;;;11.52;10.35;;;34.70;58.40;;;;;;5069997;28;20219;-69
2022/06/19 10:35:43;;;;;;;13.13;9.40;;;34.70;58.40;;;;;;5068980;28;20210;-70
2022/06/19 10:38:15;;;;;;;10.25;9.40;;;34.80;58.60;;;;;;5070685;28;20707;-71
2022/06/19 10:42:00;;;;;;;9.98;9.02;;;34.90;58.50;;;;;;5064574;28;20279;-70
2022/06/19 10:44:29;;;;;;;15.30;8.50;;;35.00;58.00;;;;;;5064341;28;20230;-71
2022/06/19 10:47:19;;;;;;;10.82;9.23;;;35.10;57.40;;;;;;5069403;28;20273;-71
2022/06/19 10:49:50;;;;;;;9.50;8.50;;;35.00;57.80;;;;;;5063770;28;20556;-70
2022/06/19 10:52:33;;;;;;;15.15;9.70;;;35.00;58.40;;;;;;5064326;28;20215;-70
2022/06/19 10:55:32;;;;;;;9.68;8.77;;;34.90;57.90;;;;;;5059366;28;20218;-71
2022/06/19 10:58:15;;;;;;;9.38;8.45;;;34.80;58.10;;;;;;5064140;28;20226;-71
2022/06/19 11:00:43;;;;;;;9.15;8.25;;;34.80;58.30;;;;;;5064886;28;20223;-70
2022/06/19 11:06:30;;;;;;;12.13;9.05;;;34.30;58.80;;;;;;5066910;28;20246;-71
2022/06/19 11:09:03;;;;;;;10.27;8.48;;;34.10;59.40;;;;;;5068964;28;20226;-69
2022/06/19 11:11:32;;;;;;;8.23;7.47;;;34.30;59.40;;;;;;5051165;28;20218;-71
2022/06/19 11:13:58;;;;;;;10.27;9.27;;;34.20;59.60;;;;;;5069187;28;20215;-71
2022/06/19 11:16:24;;;;;;;9.50;8.45;;;34.30;59.70;;;;;;5049579;28;20250;-71
2022/06/19 11:18:54;;;;;;;13.05;8.75;;;34.20;59.40;;;;;;5069790;28;20221;-71
2022/06/19 11:21:23;;;;;;;8.77;7.97;;;34.10;59.70;;;;;;5068016;28;20245;-71
2022/06/19 11:23:49;;;;;;;8.73;7.93;;;34.00;59.90;;;;;;5069460;28;20256;-70
2022/06/19 11:26:17;;;;;;;9.07;8.27;;;34.00;61.30;;;;;;5067931;28;20273;-71
2022/06/19 11:29:17;;;;;;;9.75;8.90;;;34.00;61.40;;;;;;5051244;28;20581;-70
2022/06/19 11:32:09;;;;;;;9.82;8.93;;;34.00;60.80;;;;;;5068405;28;21301;-71
2022/06/19 11:34:51;;;;;;;9.70;7.55;;;33.70;60.60;;;;;;5050408;28;20734;-70
2022/06/19 11:37:23;;;;;;;9.90;8.80;;;33.60;61.00;;;;;;5054842;28;20231;-70
2022/06/19 11:39:54;;;;;;;12.82;9.95;;;33.50;60.50;;;;;;5066891;28;20230;-71
2022/06/19 11:42:28;;;;;;;9.10;8.20;;;33.60;60.90;;;;;;5047916;28;20247;-71
2022/06/19 11:44:58;;;;;;;11.85;8.50;;;33.50;60.50;;;;;;5066614;28;20312;-70
2022/06/19 11:47:58;;;;;;;12.32;8.50;;;33.70;61.10;;;;;;5050710;28;20725;-69
2022/06/19 11:50:33;;;;;;;9.52;8.52;;;33.90;60.00;;;;;;5062597;28;20311;-70
2022/06/19 11:53:08;;;;;;;9.82;8.82;;;34.00;59.80;;;;;;5063303;28;20234;-70
2022/06/19 11:56:18;;;;;;;9.20;8.10;;;34.00;59.70;;;;;;5060823;28;20210;-70
2022/06/19 11:58:59;;;;;;;11.25;8.00;;;34.00;59.30;;;;;;5056603;28;20326;-70
2022/06/19 12:01:40;;;;;;;11.60;8.90;;;34.00;59.50;;;;;;5047266;28;20242;-70
2022/06/19 12:04:25;;;;;;;11.38;8.63;;;33.90;59.40;;;;;;5049142;28;20229;-70
2022/06/19 12:06:57;;;;;;;9.52;8.55;;;34.10;59.60;;;;;;5062109;28;20267;-68
2022/06/19 12:09:25;;;;;;;12.18;8.23;;;34.20;59.60;;;;;;5059598;28;20753;-70
2022/06/19 12:12:00;;;;;;;9.65;8.38;;;34.40;59.60;;;;;;5065793;28;20563;-70
2022/06/19 12:14:35;;;;;;;12.32;11.07;;;34.50;59.40;;;;;;5046073;28;20227;-70
2022/06/19 12:17:16;;;;;;;9.57;8.80;;;34.60;59.30;;;;;;5054715;28;20244;-71
2022/06/19 12:19:58;;;;;;;9.15;8.25;;;34.70;59.20;;;;;;5055422;28;20687;-70
2022/06/19 12:22:32;;;;;;;11.65;8.43;;;34.80;58.80;;;;;;5064086;28;20241;-71
2022/06/19 12:25:27;;;;;;;9.02;8.18;;;34.90;58.90;;;;;;5069331;28;20207;-71
2022/06/19 12:28:22;;;;;;;12.38;9.18;;;34.90;58.70;;;;;;5060807;28;20990;-69
2022/06/19 12:30:54;;;;;;;10.80;8.60;;;35.10;58.70;;;;;;5058000;28;20213;-71
2022/06/19 12:33:28;;;;;;;10.40;9.45;;;35.20;58.90;;;;;;5067768;28;20301;-72
2022/06/19 12:35:54;;;;;;;12.98;10.02;;;35.40;58.60;;;;;;5070905;28;20238;-70
2022/06/19 12:38:22;;;;;;;12.95;9.30;;;35.40;58.70;;;;;;5068425;28;20223;-72
2022/06/19 12:40:59;;;;;;;9.88;8.95;;;35.50;58.40;;;;;;5067118;28;20235;-70
2022/06/19 12:43:32;;;;;;;10.93;9.85;;;35.60;58.20;;;;;;5069010;28;20215;-71
2022/06/19 12:45:58;;;;;;;12.18;8.60;;;35.70;58.50;;;;;;5061098;28;20310;-69
2022/06/19 12:48:45;;;;;;;14.60;8.65;;;35.80;58.40;;;;;;5068363;28;20299;-71
2022/06/19 12:51:15;;;;;;;11.13;9.88;;;35.90;58.40;;;;;;5050492;28;20309;-69
2022/06/19 12:54:11;;;;;;;13.18;9.38;;;35.90;58.50;;;;;;5069733;28;20215;-71
2022/06/19 12:57:01;;;;;;;11.60;9.07;;;36.20;58.30;;;;;;5062523;28;20245;-71
2022/06/19 13:00:11;;;;;;;11.38;10.27;;;36.20;58.20;;;;;;5068893;28;20698;-70
2022/06/19 13:03:10;;;;;;;10.50;9.40;;;36.40;58.40;;;;;;5051381;28;20281;-70
2022/06/19 13:06:07;;;;;;;9.63;8.65;;;36.40;58.40;;;;;;5036867;28;21052;-71
2022/06/19 13:08:59;;;;;;;15.07;9.70;;;36.60;58.40;;;;;;5065193;28;20225;-70
2022/06/19 13:11:37;;;;;;;11.88;10.07;;;36.80;58.30;;;;;;5068087;28;20226;-71
2022/06/19 13:14:36;;;;;;;10.90;9.82;;;36.90;58.10;;;;;;5065336;28;20238;-69
2022/06/19 13:17:02;;;;;;;12.43;9.82;;;37.20;57.80;;;;;;5065965;28;20254;-70